createdAt,value
2019-02-17T00:00:40.617Z,7.12
2019-02-17T00:03:06.811Z,7.16
2019-02-17T00:05:32.926Z,7.11
2019-02-17T00:07:59.116Z,7.06
2019-02-17T00:10:25.225Z,7.11
2019-02-17T00:12:51.676Z,7.18
2019-02-17T00:15:17.860Z,7.21
2019-02-17T00:17:44.030Z,7.19
2019-02-17T00:20:10.219Z,7.19
2019-02-17T00:22:36.310Z,7.12
2019-02-17T00:25:03.419Z,7.11
2019-02-17T00:27:30.280Z,7.09
2019-02-17T00:29:56.605Z,7.04
2019-02-17T00:32:22.725Z,7.01
2019-02-17T00:34:48.920Z,6.98
2019-02-17T00:37:15.050Z,6.94
2019-02-17T00:39:41.216Z,6.93
2019-02-17T00:42:07.389Z,6.90
2019-02-17T00:44:33.549Z,6.84
2019-02-17T00:46:59.991Z,6.79
2019-02-17T00:49:26.276Z,6.70
2019-02-17T00:51:52.455Z,6.63
2019-02-17T00:54:18.598Z,6.57
2019-02-17T00:56:44.849Z,6.55
2019-02-17T00:59:11.084Z,6.54
2019-02-17T01:01:37.337Z,6.55
2019-02-17T01:04:03.466Z,6.59
2019-02-17T01:06:29.708Z,6.62
2019-02-17T01:08:56.112Z,6.65
2019-02-17T01:11:22.263Z,6.64
2019-02-17T01:13:48.479Z,6.59
2019-02-17T01:16:14.579Z,6.53
2019-02-17T01:18:40.787Z,6.49
2019-02-17T01:21:06.892Z,6.44
2019-02-17T01:23:33.054Z,6.47
2019-02-17T01:25:59.138Z,6.46
2019-02-17T01:28:25.343Z,6.45
2019-02-17T01:30:51.449Z,6.46
2019-02-17T01:33:17.877Z,6.47
2019-02-17T01:35:44.082Z,6.42
2019-02-17T01:38:10.316Z,6.34
2019-02-17T01:40:36.608Z,6.36
2019-02-17T01:43:02.792Z,6.32
2019-02-17T01:45:29.186Z,6.23
2019-02-17T01:47:55.374Z,6.15
2019-02-17T01:50:21.535Z,6.03
2019-02-17T01:52:47.685Z,5.99
2019-02-17T01:55:14.115Z,6.04
2019-02-17T01:57:40.540Z,6.03
2019-02-17T02:00:10.670Z,6.08
2019-02-17T02:02:36.819Z,6.07
2019-02-17T02:05:04.689Z,6.10
2019-02-17T02:07:30.814Z,6.12
2019-02-17T02:09:57.003Z,6.15
2019-02-17T02:12:23.168Z,6.08
2019-02-17T02:14:49.379Z,6.05
2019-02-17T02:17:15.543Z,6.07
2019-02-17T02:19:41.808Z,6.13
2019-02-17T02:22:08.002Z,6.18
2019-02-17T02:24:34.082Z,6.19
2019-02-17T02:27:00.303Z,6.18
2019-02-17T02:29:29.439Z,6.21
2019-02-17T02:31:55.691Z,6.17
2019-02-17T02:34:21.885Z,6.11
2019-02-17T02:36:48.159Z,6.08
2019-02-17T02:39:14.408Z,5.95
2019-02-17T02:41:40.618Z,5.96
2019-02-17T02:44:06.772Z,5.95
2019-02-17T02:46:32.959Z,6.01
2019-02-17T02:48:59.172Z,5.96
2019-02-17T02:51:25.399Z,5.88
2019-02-17T02:53:51.506Z,5.87
2019-02-17T02:56:18.841Z,5.85
2019-02-17T02:58:45.031Z,5.95
2019-02-17T03:01:11.790Z,5.88
2019-02-17T03:03:37.961Z,5.82
2019-02-17T03:06:06.026Z,5.86
2019-02-17T03:08:32.418Z,5.99
2019-02-17T03:10:58.602Z,5.98
2019-02-17T03:13:24.827Z,6.02
2019-02-17T03:15:50.946Z,5.98
2019-02-17T03:18:17.167Z,6.00
2019-02-17T03:20:43.356Z,6.09
2019-02-17T03:23:09.564Z,6.13
2019-02-17T03:25:35.669Z,6.15
2019-02-17T03:28:01.885Z,6.15
2019-02-17T03:30:28.022Z,6.16
2019-02-17T03:32:54.209Z,6.11
2019-02-17T03:35:20.299Z,6.13
2019-02-17T03:37:46.802Z,6.18
2019-02-17T03:40:12.917Z,6.12
2019-02-17T03:42:39.589Z,6.13
2019-02-17T03:45:08.168Z,6.10
2019-02-17T03:47:34.464Z,6.07
2019-02-17T03:50:00.797Z,6.03
2019-02-17T03:52:26.935Z,5.94
2019-02-17T03:54:53.076Z,5.86
2019-02-17T03:57:19.322Z,5.85
2019-02-17T03:59:45.472Z,5.83
2019-02-17T04:02:11.618Z,5.82
2019-02-17T04:04:37.877Z,5.75
2019-02-17T04:07:04.122Z,5.70
2019-02-17T04:09:30.299Z,5.73
2019-02-17T04:11:56.760Z,5.70
2019-02-17T04:14:22.914Z,5.68
2019-02-17T04:16:49.113Z,5.72
2019-02-17T04:19:15.490Z,5.73
2019-02-17T04:21:41.646Z,5.71
2019-02-17T04:24:08.332Z,5.66
2019-02-17T04:26:34.486Z,5.61
2019-02-17T04:29:01.512Z,5.59
2019-02-17T04:31:27.719Z,5.60
2019-02-17T04:33:54.814Z,5.65
2019-02-17T04:36:21.166Z,5.63
2019-02-17T04:38:47.246Z,5.61
2019-02-17T04:41:13.831Z,5.56
2019-02-17T04:43:40.066Z,5.52
2019-02-17T04:46:06.258Z,5.54
2019-02-17T04:48:32.406Z,5.55
2019-02-17T04:50:58.597Z,5.53
2019-02-17T04:53:25.299Z,5.46
2019-02-17T04:55:51.533Z,5.45
2019-02-17T04:58:18.250Z,5.35
2019-02-17T05:00:44.596Z,5.23
2019-02-17T05:03:10.716Z,5.23
2019-02-17T05:05:37.757Z,5.19
2019-02-17T05:08:03.858Z,5.09
2019-02-17T05:10:30.048Z,5.04
2019-02-17T05:12:56.165Z,5.02
2019-02-17T05:15:22.375Z,5.00
2019-02-17T05:17:48.503Z,4.95
2019-02-17T05:20:14.694Z,4.90
2019-02-17T05:22:41.471Z,4.90
2019-02-17T05:25:07.872Z,4.85
2019-02-17T05:27:36.261Z,4.90
2019-02-17T05:30:05.175Z,4.88
2019-02-17T05:32:31.348Z,4.83
2019-02-17T05:34:59.041Z,4.85
2019-02-17T05:37:25.387Z,4.88
2019-02-17T05:39:51.883Z,4.90
2019-02-17T05:42:18.081Z,4.87
2019-02-17T05:44:44.229Z,4.83
2019-02-17T05:47:10.653Z,4.84
2019-02-17T05:49:36.787Z,4.86
2019-02-17T05:52:03.017Z,4.88
2019-02-17T05:54:29.117Z,4.88
2019-02-17T05:56:55.321Z,4.90
2019-02-17T05:59:21.539Z,4.87
2019-02-17T06:01:47.761Z,4.89
2019-02-17T06:04:14.048Z,4.93
2019-02-17T06:06:40.243Z,4.95
2019-02-17T06:09:06.339Z,4.96
2019-02-17T06:11:32.538Z,4.96
2019-02-17T06:13:58.696Z,4.95
2019-02-17T06:16:25.268Z,4.98
2019-02-17T06:18:51.427Z,5.00
2019-02-17T06:21:17.628Z,5.05
2019-02-17T06:23:43.828Z,4.99
2019-02-17T06:26:09.986Z,5.02
2019-02-17T06:28:36.142Z,5.07
2019-02-17T06:31:02.285Z,5.11
2019-02-17T06:33:28.437Z,5.15
2019-02-17T06:35:54.665Z,5.14
2019-02-17T06:38:20.831Z,5.15
2019-02-17T06:40:47.053Z,5.19
2019-02-17T06:43:14.489Z,5.25
2019-02-17T06:45:40.711Z,5.23
2019-02-17T06:48:07.681Z,5.22
2019-02-17T06:50:34.226Z,5.22
2019-02-17T06:53:00.515Z,5.27
2019-02-17T06:55:35.099Z,5.28
2019-02-17T06:58:01.386Z,5.29
2019-02-17T07:00:29.479Z,5.25
2019-02-17T07:02:56.285Z,5.23
2019-02-17T07:05:24.457Z,5.23
2019-02-17T07:07:51.365Z,5.27
2019-02-17T07:10:17.944Z,5.29
2019-02-17T07:12:44.159Z,5.31
2019-02-17T07:15:10.266Z,5.32
2019-02-17T07:17:36.645Z,5.37
2019-02-17T07:20:04.733Z,5.44
2019-02-17T07:22:31.604Z,5.45
2019-02-17T07:24:58.505Z,5.45
2019-02-17T07:27:24.657Z,5.48
2019-02-17T07:29:51.108Z,5.52
2019-02-17T07:32:17.242Z,5.58
2019-02-17T07:34:45.180Z,5.65
2019-02-17T07:37:11.335Z,5.77
2019-02-17T07:39:38.050Z,5.92
2019-02-17T07:42:04.216Z,6.04
2019-02-17T07:44:30.524Z,6.11
2019-02-17T07:46:59.057Z,6.19
2019-02-17T07:49:28.594Z,6.29
2019-02-17T07:51:54.731Z,6.41
2019-02-17T07:54:21.184Z,6.53
2019-02-17T07:56:48.483Z,6.62
2019-02-17T07:59:14.747Z,6.68
2019-02-17T08:01:45.370Z,6.78
2019-02-17T08:04:11.415Z,6.84
2019-02-17T08:06:37.644Z,6.95
2019-02-17T08:09:05.451Z,7.08
2019-02-17T08:11:32.012Z,7.18
2019-02-17T08:23:46.719Z,7.52
2019-02-17T08:26:14.657Z,7.62
2019-02-17T08:28:42.558Z,7.80
2019-02-17T08:31:09.906Z,7.95
2019-02-17T08:33:37.402Z,8.14
2019-02-17T08:36:03.579Z,8.30
2019-02-17T08:38:31.647Z,8.51
2019-02-17T08:40:57.862Z,8.71
2019-02-17T08:43:23.963Z,8.93
2019-02-17T08:45:50.219Z,9.13
2019-02-17T08:48:16.334Z,9.35
2019-02-17T08:50:42.547Z,9.59
2019-02-17T08:53:08.988Z,9.81
2019-02-17T08:55:37.910Z,10.03
2019-02-17T08:58:05.239Z,10.24
2019-02-17T09:00:31.902Z,10.50
2019-02-17T09:02:58.727Z,10.79
2019-02-17T09:05:26.133Z,11.08
2019-02-17T09:07:53.747Z,11.46
2019-02-17T09:10:19.969Z,11.79
2019-02-17T09:12:49.038Z,12.16
2019-02-17T09:15:15.250Z,12.50
2019-02-17T09:17:41.870Z,12.86
2019-02-17T09:20:09.597Z,13.24
2019-02-17T09:22:35.696Z,13.63
2019-02-17T09:25:02.630Z,13.99
2019-02-17T09:27:28.878Z,14.28
2019-02-17T09:29:55.124Z,14.54
2019-02-17T09:32:21.351Z,14.80
2019-02-17T09:34:47.527Z,15.10
2019-02-17T09:37:13.760Z,15.36
2019-02-17T09:39:39.909Z,15.59
2019-02-17T09:42:06.326Z,15.84
2019-02-17T09:44:32.506Z,16.14
2019-02-17T09:46:59.164Z,16.42
2019-02-17T09:49:25.324Z,16.70
2019-02-17T09:51:51.469Z,16.92
2019-02-17T09:54:17.652Z,17.09
2019-02-17T09:56:43.910Z,17.26
2019-02-17T09:59:11.151Z,17.53
2019-02-17T10:01:37.350Z,17.83
2019-02-17T10:04:03.654Z,18.05
2019-02-17T10:06:29.922Z,18.18
2019-02-17T10:08:56.122Z,18.28
2019-02-17T10:11:22.733Z,18.40
2019-02-17T10:13:48.895Z,18.56
2019-02-17T10:16:15.596Z,18.77
2019-02-17T10:18:41.695Z,18.97
2019-02-17T10:21:08.342Z,19.28
2019-02-17T10:23:34.524Z,19.41
2019-02-17T10:26:01.049Z,19.66
2019-02-17T10:28:27.225Z,19.95
2019-02-17T10:43:46.263Z,21.43
2019-02-17T10:46:12.540Z,21.97
2019-02-17T10:48:38.874Z,22.39
2019-02-17T10:51:05.060Z,22.84
2019-02-17T10:53:33.806Z,23.35
2019-02-17T10:56:00.552Z,23.70
2019-02-17T10:58:27.182Z,24.18
2019-02-17T11:00:53.403Z,24.82
2019-02-17T11:03:19.513Z,25.38
2019-02-17T11:05:46.203Z,25.98
2019-02-17T11:08:12.294Z,26.55
2019-02-17T11:10:39.305Z,26.89
2019-02-17T11:13:05.396Z,27.17
2019-02-17T11:15:31.577Z,27.67
2019-02-17T11:17:58.171Z,28.15
2019-02-17T11:20:24.371Z,28.35
2019-02-17T11:22:50.805Z,28.68
2019-02-17T11:25:18.106Z,28.81
2019-02-17T11:27:44.222Z,28.67
2019-02-17T11:30:16.432Z,28.79
2019-02-17T11:32:42.533Z,28.87
2019-02-17T11:35:08.719Z,28.54
2019-02-17T11:37:34.871Z,28.52
2019-02-17T11:40:01.061Z,28.82
2019-02-17T11:42:28.430Z,28.88
2019-02-17T11:44:55.030Z,28.80
2019-02-17T11:47:22.258Z,28.75
2019-02-17T11:49:48.348Z,28.88
2019-02-17T11:52:15.728Z,29.01
2019-02-17T11:54:42.325Z,29.21
2019-02-17T11:57:08.507Z,29.49
2019-02-17T11:59:34.631Z,30.02
2019-02-17T12:02:00.772Z,30.56
2019-02-17T12:04:26.906Z,30.84
2019-02-17T12:06:53.158Z,31.01
2019-02-17T12:09:19.342Z,31.12
2019-02-17T12:11:45.487Z,31.60
2019-02-17T12:14:11.643Z,31.83
2019-02-17T12:16:37.795Z,32.10
2019-02-17T12:19:03.908Z,32.19
2019-02-17T12:21:37.986Z,32.29
2019-02-17T12:24:11.848Z,32.53
2019-02-17T12:26:39.880Z,32.80
2019-02-17T12:29:08.073Z,33.05
2019-02-17T12:31:35.030Z,32.93
2019-02-17T12:34:01.199Z,32.61
2019-02-17T12:36:27.463Z,32.65
2019-02-17T12:38:53.541Z,32.80
2019-02-17T12:41:19.747Z,33.07
2019-02-17T12:43:45.943Z,33.38
2019-02-17T12:46:12.046Z,33.46
2019-02-17T12:48:39.789Z,33.40
2019-02-17T12:51:06.089Z,33.71
2019-02-17T12:53:32.274Z,33.63
2019-02-17T12:55:58.417Z,33.85
2019-02-17T12:58:29.902Z,34.07
2019-02-17T13:00:52.799Z,34.53
2019-02-17T13:03:28.026Z,34.86
2019-02-17T13:05:47.056Z,35.15
2019-02-17T13:08:13.172Z,35.45
2019-02-17T13:10:39.351Z,35.72
2019-02-17T13:13:05.569Z,35.45
2019-02-17T13:15:31.692Z,35.38
2019-02-17T13:17:57.892Z,35.52
2019-02-17T13:20:23.974Z,35.93
2019-02-17T13:22:50.294Z,35.94
2019-02-17T13:25:17.654Z,35.50
2019-02-17T13:27:44.614Z,35.26
2019-02-17T13:30:13.952Z,35.43
2019-02-17T13:32:40.140Z,35.38
2019-02-17T13:35:06.395Z,34.70
2019-02-17T13:37:32.574Z,34.70
2019-02-17T13:39:58.675Z,34.28
2019-02-17T13:42:24.975Z,33.91
2019-02-17T13:44:51.058Z,33.82
2019-02-17T13:47:17.375Z,33.73
2019-02-17T13:49:43.488Z,33.49
2019-02-17T13:52:10.563Z,33.16
2019-02-17T13:54:36.755Z,32.49
2019-02-17T13:57:02.914Z,31.79
2019-02-17T13:59:29.122Z,31.21
2019-02-17T14:01:55.222Z,30.46
2019-02-17T14:04:21.445Z,29.94
2019-02-17T14:06:47.765Z,29.30
2019-02-17T14:09:14.133Z,28.47
2019-02-17T14:11:40.226Z,27.72
2019-02-17T14:14:06.427Z,26.90
2019-02-17T14:16:34.682Z,26.24
2019-02-17T14:19:01.207Z,25.88
2019-02-17T14:21:27.363Z,25.49
2019-02-17T14:23:53.932Z,25.24
2019-02-17T14:26:21.974Z,24.74
2019-02-17T14:28:48.487Z,24.22
2019-02-17T14:31:14.706Z,23.82
2019-02-17T14:33:41.265Z,23.75
2019-02-17T14:36:07.405Z,23.99
2019-02-17T14:38:33.581Z,23.89
2019-02-17T14:40:59.667Z,23.58
2019-02-17T14:43:25.834Z,23.18
2019-02-17T14:45:52.045Z,22.80
2019-02-17T14:48:18.842Z,22.56
2019-02-17T14:50:45.140Z,22.23
2019-02-17T14:53:11.522Z,21.95
2019-02-17T14:55:37.609Z,21.58
2019-02-17T14:58:05.666Z,21.23
2019-02-17T15:00:33.212Z,20.96
2019-02-17T15:03:00.221Z,20.82
2019-02-17T15:05:26.430Z,20.62
2019-02-17T15:07:52.661Z,20.38
2019-02-17T15:10:18.855Z,19.88
2019-02-17T15:12:45.055Z,19.88
2019-02-17T15:15:14.058Z,19.66
2019-02-17T15:17:40.290Z,19.38
2019-02-17T15:20:09.640Z,18.92
2019-02-17T15:22:35.785Z,18.62
2019-02-17T15:25:02.555Z,18.15
2019-02-17T15:27:28.715Z,17.80
2019-02-17T15:29:54.943Z,17.55
2019-02-17T15:32:21.179Z,17.30
2019-02-17T15:34:50.543Z,17.02
2019-02-17T15:37:16.769Z,16.92
2019-02-17T15:39:43.065Z,16.85
2019-02-17T15:42:09.265Z,16.69
2019-02-17T15:44:35.371Z,16.50
2019-02-17T15:47:01.568Z,16.35
2019-02-17T15:49:27.743Z,16.25
2019-02-17T15:51:54.068Z,16.05
2019-02-17T15:54:20.184Z,15.82
2019-02-17T15:56:46.364Z,15.61
2019-02-17T15:59:15.597Z,15.46
2019-02-17T16:01:41.611Z,15.24
2019-02-17T16:04:07.845Z,14.98
2019-02-17T16:06:33.992Z,14.81
2019-02-17T16:09:00.238Z,14.67
2019-02-17T16:11:26.460Z,14.53
2019-02-17T16:13:52.685Z,14.37
2019-02-17T16:16:18.860Z,14.16
2019-02-17T16:18:45.018Z,14.02
2019-02-17T16:21:11.188Z,13.91
2019-02-17T16:23:37.516Z,13.76
2019-02-17T16:26:03.728Z,13.53
2019-02-17T16:28:31.010Z,13.29
2019-02-17T16:30:57.217Z,13.13
2019-02-17T16:33:24.196Z,12.92
2019-02-17T16:35:51.450Z,12.81
2019-02-17T16:38:17.658Z,12.67
2019-02-17T16:40:43.951Z,12.63
2019-02-17T16:43:10.184Z,12.57
2019-02-17T16:45:36.381Z,12.45
2019-02-17T16:48:02.541Z,12.38
2019-02-17T16:50:30.556Z,12.31
2019-02-17T16:52:56.720Z,12.18
2019-02-17T16:55:22.980Z,11.96
2019-02-17T16:57:49.109Z,11.75
2019-02-17T17:00:19.725Z,11.54
2019-02-17T17:02:45.945Z,11.34
2019-02-17T17:05:12.493Z,11.10
2019-02-17T17:07:39.310Z,10.97
2019-02-17T17:10:05.554Z,10.85
2019-02-17T17:12:31.963Z,10.78
2019-02-17T17:14:58.193Z,10.72
2019-02-17T17:17:25.430Z,10.55
2019-02-17T17:19:51.543Z,10.49
2019-02-17T17:22:17.784Z,10.49
2019-02-17T17:24:43.902Z,10.61
2019-02-17T17:27:10.041Z,10.69
2019-02-17T17:29:36.182Z,10.75
2019-02-17T17:32:02.371Z,10.72
2019-02-17T17:34:28.520Z,10.72
2019-02-17T17:36:54.836Z,10.80
2019-02-17T17:39:21.035Z,10.95
2019-02-17T17:41:47.292Z,11.02
2019-02-17T17:44:14.535Z,11.01
2019-02-17T17:46:40.700Z,10.70
2019-02-17T17:49:06.859Z,10.55
2019-02-17T17:51:32.998Z,10.57
2019-02-17T17:53:59.294Z,10.49
2019-02-17T17:56:25.440Z,10.47
2019-02-17T17:58:51.624Z,10.48
2019-02-17T18:01:17.808Z,10.45
2019-02-17T18:04:12.208Z,10.39
2019-02-17T18:06:38.497Z,10.35
2019-02-17T18:09:05.122Z,10.28
2019-02-17T18:11:31.352Z,10.18
2019-02-17T18:13:57.557Z,10.13
2019-02-17T18:16:23.758Z,10.00
2019-02-17T18:18:49.926Z,9.87
2019-02-17T18:21:16.467Z,9.70
2019-02-17T18:23:42.624Z,9.54
2019-02-17T18:26:08.943Z,9.46
2019-02-17T18:28:35.075Z,9.41
2019-02-17T18:31:01.216Z,9.39
2019-02-17T18:33:27.538Z,9.33
2019-02-17T18:35:53.672Z,9.37
2019-02-17T18:38:19.842Z,9.46
2019-02-17T18:40:47.905Z,9.59
2019-02-17T18:43:14.349Z,9.52
2019-02-17T18:45:40.517Z,9.49
2019-02-17T18:48:06.777Z,9.54
2019-02-17T18:50:32.854Z,9.50
2019-02-17T18:53:01.507Z,9.49
2019-02-17T18:55:27.590Z,9.36
2019-02-17T18:57:53.759Z,9.30
2019-02-17T19:00:24.966Z,9.29
2019-02-17T19:02:51.124Z,9.27
2019-02-17T19:05:17.226Z,9.24
2019-02-17T19:07:43.494Z,9.23
2019-02-17T19:10:11.351Z,9.22
2019-02-17T19:12:37.554Z,9.20
2019-02-17T19:15:16.745Z,9.21
2019-02-17T19:17:42.972Z,9.19
2019-02-17T19:20:11.798Z,9.18
2019-02-17T19:22:38.019Z,9.21
2019-02-17T19:25:06.615Z,9.11
2019-02-17T19:27:32.834Z,9.07
2019-02-17T19:29:58.934Z,9.03
2019-02-17T19:32:25.190Z,9.02
2019-02-17T19:34:51.393Z,8.98
2019-02-17T19:37:19.391Z,8.93
2019-02-17T19:39:45.641Z,8.91
2019-02-17T19:42:11.846Z,8.90
2019-02-17T19:44:38.952Z,8.89
2019-02-17T19:47:06.815Z,8.86
2019-02-17T19:49:33.811Z,8.88
2019-02-17T19:52:01.253Z,8.89
2019-02-17T19:54:27.357Z,8.86
2019-02-17T19:56:53.544Z,8.83
2019-02-17T19:59:21.611Z,8.78
2019-02-17T20:01:47.794Z,8.69
2019-02-17T20:04:15.810Z,8.71
2019-02-17T20:06:42.134Z,8.75
2019-02-17T20:09:15.361Z,8.75
2019-02-17T20:11:41.547Z,8.68
2019-02-17T20:14:07.781Z,8.64
2019-02-17T20:16:33.881Z,8.60
2019-02-17T20:19:00.048Z,8.55
2019-02-17T20:21:26.181Z,8.51
2019-02-17T20:23:53.787Z,8.55
2019-02-17T20:26:20.229Z,8.58
2019-02-17T20:28:47.291Z,8.41
2019-02-17T20:31:13.783Z,8.39
2019-02-17T20:33:40.900Z,8.40
2019-02-17T20:36:07.001Z,8.38
2019-02-17T20:38:33.209Z,8.33
2019-02-17T20:40:59.341Z,8.35
2019-02-17T20:43:25.481Z,8.34
2019-02-17T20:45:51.630Z,8.33
2019-02-17T20:48:17.787Z,8.31
2019-02-17T20:50:43.937Z,8.20
2019-02-17T20:53:11.050Z,8.18
2019-02-17T20:55:37.617Z,8.17
2019-02-17T20:58:03.966Z,8.18
2019-02-17T21:00:30.357Z,8.24
2019-02-17T21:02:56.615Z,8.31
2019-02-17T21:05:22.831Z,8.31
2019-02-17T21:07:48.914Z,8.39
2019-02-17T21:10:15.406Z,8.40
2019-02-17T21:12:41.606Z,8.44
2019-02-17T21:15:11.650Z,8.41
2019-02-17T21:17:39.841Z,8.40
2019-02-17T21:20:07.340Z,8.42
2019-02-17T21:22:33.932Z,8.50
2019-02-17T21:25:00.506Z,8.49
2019-02-17T21:27:27.584Z,8.40
2019-02-17T21:29:55.172Z,8.47
2019-02-17T21:32:21.375Z,8.51
2019-02-17T21:34:48.475Z,8.50
2019-02-17T21:37:14.668Z,8.48
2019-02-17T21:39:40.811Z,8.47
2019-02-17T21:42:07.792Z,8.44
2019-02-17T21:44:34.047Z,8.43
2019-02-17T21:47:00.899Z,8.40
2019-02-17T21:49:27.137Z,8.36
2019-02-17T21:51:53.323Z,8.24
2019-02-17T21:54:20.373Z,8.17
2019-02-17T21:56:46.718Z,8.18
2019-02-17T21:59:12.951Z,8.24
2019-02-17T22:01:39.237Z,8.24
2019-02-17T22:04:05.408Z,8.23
2019-02-17T22:06:33.795Z,8.32
2019-02-17T22:08:59.791Z,8.36
2019-02-17T22:11:25.931Z,8.33
2019-02-17T22:13:52.119Z,8.42
2019-02-17T22:16:20.239Z,8.45
2019-02-17T22:18:46.380Z,8.45
2019-02-17T22:21:12.517Z,8.42
2019-02-17T22:23:40.033Z,8.46
2019-02-17T22:26:06.212Z,8.41
2019-02-17T22:28:32.409Z,8.40
2019-02-17T22:30:58.503Z,8.38
2019-02-17T22:33:25.830Z,8.38
2019-02-17T22:35:52.035Z,8.39
2019-02-17T22:38:18.173Z,8.34
2019-02-17T22:40:44.313Z,8.26
2019-02-17T22:43:10.458Z,8.26
2019-02-17T22:45:36.598Z,8.28
2019-02-17T22:48:02.796Z,8.23
2019-02-17T22:50:28.919Z,8.14
2019-02-17T22:52:55.084Z,8.13
2019-02-17T22:55:21.198Z,8.10
2019-02-17T22:57:47.399Z,8.11
2019-02-17T23:00:20.305Z,8.08
2019-02-17T23:02:48.386Z,8.11
2019-02-17T23:05:14.485Z,8.09
2019-02-17T23:07:40.778Z,8.17
2019-02-17T23:10:08.159Z,8.19
2019-02-17T23:12:34.442Z,8.15
2019-02-17T23:15:00.579Z,8.20
2019-02-17T23:17:26.713Z,8.20
2019-02-17T23:19:52.924Z,8.20
2019-02-17T23:22:19.020Z,8.20
2019-02-17T23:24:45.319Z,8.23
2019-02-17T23:27:11.455Z,8.23
2019-02-17T23:29:37.643Z,8.17
2019-02-17T23:32:03.751Z,8.17
2019-02-17T23:34:29.963Z,8.10
2019-02-17T23:37:03.648Z,7.99
2019-02-17T23:39:24.247Z,7.85
2019-02-17T23:41:50.423Z,7.77
2019-02-17T23:44:16.497Z,7.72
2019-02-17T23:46:42.690Z,7.74
2019-02-17T23:49:08.783Z,7.71
2019-02-17T23:51:34.971Z,7.70
2019-02-17T23:54:01.112Z,7.68
2019-02-17T23:56:28.407Z,7.75
2019-02-17T23:58:54.496Z,7.82
